sensor_id;sensor_type;location;lat;lon;timestamp;P1;durP1;ratioP1;P2;durP2;ratioP2
6475;SDS011;3271;51.910;5.840;2023-07-08T00:02:09;3.63;;;2.85;;
6475;SDS011;3271;51.910;5.840;2023-07-08T00:04:38;3.33;;;3.03;;
6475;SDS011;3271;51.910;5.840;2023-07-08T00:07:05;3.72;;;3.05;;
6475;SDS011;3271;51.910;5.840;2023-07-08T00:09:31;3.10;;;2.72;;
6475;SDS011;3271;51.910;5.840;2023-07-08T00:11:57;4.28;;;2.50;;
6475;SDS011;3271;51.910;5.840;2023-07-08T00:14:23;3.35;;;2.80;;
6475;SDS011;3271;51.910;5.840;2023-07-08T00:16:49;2.92;;;2.47;;
6475;SDS011;3271;51.910;5.840;2023-07-08T00:19:16;2.92;;;2.50;;
6475;SDS011;3271;51.910;5.840;2023-07-08T00:21:48;3.25;;;2.83;;
6475;SDS011;3271;51.910;5.840;2023-07-08T00:24:16;3.67;;;2.25;;
6475;SDS011;3271;51.910;5.840;2023-07-08T00:26:42;2.95;;;2.67;;
6475;SDS011;3271;51.910;5.840;2023-07-08T00:29:08;4.32;;;3.63;;
6475;SDS011;3271;51.910;5.840;2023-07-08T00:31:35;3.55;;;2.83;;
6475;SDS011;3271;51.910;5.840;2023-07-08T00:34:01;4.78;;;2.97;;
6475;SDS011;3271;51.910;5.840;2023-07-08T00:36:28;4.53;;;2.85;;
6475;SDS011;3271;51.910;5.840;2023-07-08T00:38:54;3.45;;;2.65;;
6475;SDS011;3271;51.910;5.840;2023-07-08T00:43:53;2.92;;;2.60;;
6475;SDS011;3271;51.910;5.840;2023-07-08T00:46:25;3.88;;;2.63;;
6475;SDS011;3271;51.910;5.840;2023-07-08T00:49:00;2.90;;;2.70;;
6475;SDS011;3271;51.910;5.840;2023-07-08T00:51:27;3.20;;;2.83;;
6475;SDS011;3271;51.910;5.840;2023-07-08T00:53:53;3.78;;;3.08;;
6475;SDS011;3271;51.910;5.840;2023-07-08T00:56:24;4.45;;;2.83;;
6475;SDS011;3271;51.910;5.840;2023-07-08T00:58:54;4.32;;;2.70;;
6475;SDS011;3271;51.910;5.840;2023-07-08T01:01:21;4.05;;;2.97;;
6475;SDS011;3271;51.910;5.840;2023-07-08T01:03:52;4.13;;;2.80;;
6475;SDS011;3271;51.910;5.840;2023-07-08T01:06:19;3.10;;;2.80;;
6475;SDS011;3271;51.910;5.840;2023-07-08T01:08:47;2.92;;;2.63;;
6475;SDS011;3271;51.910;5.840;2023-07-08T01:11:17;3.00;;;2.70;;
6475;SDS011;3271;51.910;5.840;2023-07-08T01:13:46;3.10;;;2.80;;
6475;SDS011;3271;51.910;5.840;2023-07-08T01:16:13;2.85;;;2.65;;
6475;SDS011;3271;51.910;5.840;2023-07-08T01:18:40;4.45;;;3.70;;
6475;SDS011;3271;51.910;5.840;2023-07-08T01:21:26;3.45;;;2.92;;
6475;SDS011;3271;51.910;5.840;2023-07-08T01:23:52;3.45;;;3.10;;
6475;SDS011;3271;51.910;5.840;2023-07-08T01:26:19;4.47;;;2.78;;
6475;SDS011;3271;51.910;5.840;2023-07-08T01:28:45;4.53;;;3.00;;
6475;SDS011;3271;51.910;5.840;2023-07-08T01:31:11;3.40;;;2.67;;
6475;SDS011;3271;51.910;5.840;2023-07-08T01:33:37;4.53;;;2.78;;
6475;SDS011;3271;51.910;5.840;2023-07-08T01:36:03;3.30;;;3.00;;
6475;SDS011;3271;51.910;5.840;2023-07-08T01:38:30;3.75;;;2.83;;
6475;SDS011;3271;51.910;5.840;2023-07-08T01:40:57;2.50;;;2.30;;
6475;SDS011;3271;51.910;5.840;2023-07-08T01:43:24;4.45;;;2.70;;
6475;SDS011;3271;51.910;5.840;2023-07-08T01:45:50;5.70;;;3.53;;
6475;SDS011;3271;51.910;5.840;2023-07-08T01:48:18;4.55;;;2.65;;
6475;SDS011;3271;51.910;5.840;2023-07-08T01:50:47;3.42;;;2.60;;
6475;SDS011;3271;51.910;5.840;2023-07-08T01:53:15;3.53;;;2.90;;
6475;SDS011;3271;51.910;5.840;2023-07-08T01:55:41;3.80;;;3.42;;
6475;SDS011;3271;51.910;5.840;2023-07-08T01:58:07;3.90;;;2.80;;
6475;SDS011;3271;51.910;5.840;2023-07-08T02:00:33;3.55;;;2.67;;
6475;SDS011;3271;51.910;5.840;2023-07-08T02:02:59;5.05;;;2.75;;
6475;SDS011;3271;51.910;5.840;2023-07-08T02:05:24;3.08;;;2.63;;
6475;SDS011;3271;51.910;5.840;2023-07-08T02:07:50;3.40;;;2.92;;
6475;SDS011;3271;51.910;5.840;2023-07-08T02:10:16;3.83;;;2.90;;
6475;SDS011;3271;51.910;5.840;2023-07-08T02:12:42;6.07;;;3.85;;
6475;SDS011;3271;51.910;5.840;2023-07-08T02:15:08;3.60;;;2.38;;
6475;SDS011;3271;51.910;5.840;2023-07-08T02:17:34;4.35;;;3.05;;
6475;SDS011;3271;51.910;5.840;2023-07-08T02:20:00;2.75;;;2.55;;
6475;SDS011;3271;51.910;5.840;2023-07-08T02:22:27;3.85;;;3.38;;
6475;SDS011;3271;51.910;5.840;2023-07-08T02:24:53;4.20;;;2.88;;
6475;SDS011;3271;51.910;5.840;2023-07-08T02:27:19;3.17;;;2.80;;
6475;SDS011;3271;51.910;5.840;2023-07-08T02:29:45;4.28;;;3.58;;
6475;SDS011;3271;51.910;5.840;2023-07-08T02:32:11;4.40;;;2.72;;
6475;SDS011;3271;51.910;5.840;2023-07-08T02:34:37;4.97;;;2.70;;
6475;SDS011;3271;51.910;5.840;2023-07-08T02:37:03;3.33;;;2.67;;
6475;SDS011;3271;51.910;5.840;2023-07-08T02:39:29;3.38;;;2.92;;
6475;SDS011;3271;51.910;5.840;2023-07-08T02:41:55;3.38;;;3.08;;
6475;SDS011;3271;51.910;5.840;2023-07-08T02:44:21;3.03;;;2.83;;
6475;SDS011;3271;51.910;5.840;2023-07-08T02:46:47;3.35;;;2.40;;
6475;SDS011;3271;51.910;5.840;2023-07-08T02:49:13;8.10;;;2.88;;
6475;SDS011;3271;51.910;5.840;2023-07-08T02:51:39;3.17;;;2.70;;
6475;SDS011;3271;51.910;5.840;2023-07-08T02:54:05;2.97;;;2.65;;
6475;SDS011;3271;51.910;5.840;2023-07-08T02:56:31;3.67;;;2.90;;
6475;SDS011;3271;51.910;5.840;2023-07-08T02:58:57;4.38;;;3.05;;
6475;SDS011;3271;51.910;5.840;2023-07-08T03:01:23;4.95;;;2.83;;
6475;SDS011;3271;51.910;5.840;2023-07-08T03:03:51;2.90;;;2.67;;
6475;SDS011;3271;51.910;5.840;2023-07-08T03:06:21;3.83;;;2.95;;
6475;SDS011;3271;51.910;5.840;2023-07-08T03:08:47;3.85;;;2.95;;
6475;SDS011;3271;51.910;5.840;2023-07-08T03:11:14;2.80;;;2.60;;
6475;SDS011;3271;51.910;5.840;2023-07-08T03:13:40;2.97;;;2.78;;
6475;SDS011;3271;51.910;5.840;2023-07-08T03:16:06;3.63;;;2.80;;
6475;SDS011;3271;51.910;5.840;2023-07-08T03:18:37;3.75;;;3.00;;
6475;SDS011;3271;51.910;5.840;2023-07-08T03:21:10;4.07;;;2.78;;
6475;SDS011;3271;51.910;5.840;2023-07-08T03:23:37;5.22;;;2.97;;
6475;SDS011;3271;51.910;5.840;2023-07-08T03:26:03;4.35;;;2.97;;
6475;SDS011;3271;51.910;5.840;2023-07-08T03:28:29;4.90;;;2.95;;
6475;SDS011;3271;51.910;5.840;2023-07-08T03:30:55;3.30;;;3.00;;
6475;SDS011;3271;51.910;5.840;2023-07-08T03:33:21;5.68;;;2.88;;
6475;SDS011;3271;51.910;5.840;2023-07-08T03:35:48;5.13;;;3.10;;
6475;SDS011;3271;51.910;5.840;2023-07-08T03:38:14;3.97;;;2.92;;
6475;SDS011;3271;51.910;5.840;2023-07-08T03:40:40;3.58;;;2.83;;
6475;SDS011;3271;51.910;5.840;2023-07-08T03:43:06;3.60;;;2.85;;
6475;SDS011;3271;51.910;5.840;2023-07-08T03:45:32;3.70;;;2.80;;
6475;SDS011;3271;51.910;5.840;2023-07-08T03:47:58;3.63;;;3.03;;
6475;SDS011;3271;51.910;5.840;2023-07-08T03:50:25;3.88;;;2.97;;
6475;SDS011;3271;51.910;5.840;2023-07-08T03:52:51;3.42;;;3.13;;
6475;SDS011;3271;51.910;5.840;2023-07-08T03:55:18;3.20;;;2.90;;
6475;SDS011;3271;51.910;5.840;2023-07-08T03:57:44;3.00;;;2.63;;
6475;SDS011;3271;51.910;5.840;2023-07-08T04:00:10;3.10;;;2.90;;
6475;SDS011;3271;51.910;5.840;2023-07-08T04:02:39;4.10;;;2.97;;
6475;SDS011;3271;51.910;5.840;2023-07-08T04:05:05;5.95;;;3.28;;
6475;SDS011;3271;51.910;5.840;2023-07-08T04:07:31;3.47;;;2.70;;
6475;SDS011;3271;51.910;5.840;2023-07-08T04:09:57;3.45;;;3.00;;
6475;SDS011;3271;51.910;5.840;2023-07-08T04:12:23;3.92;;;2.90;;
6475;SDS011;3271;51.910;5.840;2023-07-08T04:14:49;3.92;;;2.80;;
6475;SDS011;3271;51.910;5.840;2023-07-08T04:17:15;2.90;;;2.70;;
6475;SDS011;3271;51.910;5.840;2023-07-08T04:19:42;10.75;;;4.70;;
6475;SDS011;3271;51.910;5.840;2023-07-08T04:22:09;3.63;;;3.10;;
6475;SDS011;3271;51.910;5.840;2023-07-08T04:24:35;4.07;;;3.03;;
6475;SDS011;3271;51.910;5.840;2023-07-08T04:27:01;3.60;;;3.10;;
6475;SDS011;3271;51.910;5.840;2023-07-08T04:29:27;4.07;;;3.00;;
6475;SDS011;3271;51.910;5.840;2023-07-08T04:31:53;3.33;;;3.05;;
6475;SDS011;3271;51.910;5.840;2023-07-08T04:34:19;4.72;;;3.22;;
6475;SDS011;3271;51.910;5.840;2023-07-08T04:36:45;3.63;;;3.05;;
6475;SDS011;3271;51.910;5.840;2023-07-08T04:39:12;5.75;;;3.00;;
6475;SDS011;3271;51.910;5.840;2023-07-08T04:41:38;3.65;;;3.08;;
6475;SDS011;3271;51.910;5.840;2023-07-08T04:44:06;4.78;;;3.25;;
6475;SDS011;3271;51.910;5.840;2023-07-08T04:46:33;3.45;;;3.15;;
6475;SDS011;3271;51.910;5.840;2023-07-08T04:49:02;3.95;;;3.20;;
6475;SDS011;3271;51.910;5.840;2023-07-08T04:51:28;3.00;;;2.80;;
6475;SDS011;3271;51.910;5.840;2023-07-08T04:53:54;3.60;;;3.22;;
6475;SDS011;3271;51.910;5.840;2023-07-08T04:56:20;3.55;;;3.25;;
6475;SDS011;3271;51.910;5.840;2023-07-08T04:58:48;5.90;;;3.30;;
6475;SDS011;3271;51.910;5.840;2023-07-08T05:01:14;3.50;;;2.83;;
6475;SDS011;3271;51.910;5.840;2023-07-08T05:03:40;3.47;;;3.17;;
6475;SDS011;3271;51.910;5.840;2023-07-08T05:06:06;2.90;;;2.70;;
6475;SDS011;3271;51.910;5.840;2023-07-08T05:08:32;3.47;;;3.17;;
6475;SDS011;3271;51.910;5.840;2023-07-08T05:10:57;4.22;;;3.33;;
6475;SDS011;3271;51.910;5.840;2023-07-08T05:13:24;3.00;;;2.80;;
6475;SDS011;3271;51.910;5.840;2023-07-08T05:15:50;3.40;;;3.05;;
6475;SDS011;3271;51.910;5.840;2023-07-08T05:18:16;3.60;;;3.30;;
6475;SDS011;3271;51.910;5.840;2023-07-08T05:20:42;3.15;;;2.90;;
6475;SDS011;3271;51.910;5.840;2023-07-08T05:23:08;3.63;;;3.30;;
6475;SDS011;3271;51.910;5.840;2023-07-08T05:25:35;4.13;;;3.72;;
6475;SDS011;3271;51.910;5.840;2023-07-08T05:28:01;5.60;;;3.28;;
6475;SDS011;3271;51.910;5.840;2023-07-08T05:30:26;4.22;;;3.65;;
6475;SDS011;3271;51.910;5.840;2023-07-08T05:32:52;4.45;;;3.05;;
6475;SDS011;3271;51.910;5.840;2023-07-08T05:35:18;3.25;;;3.05;;
6475;SDS011;3271;51.910;5.840;2023-07-08T05:37:44;3.97;;;3.33;;
6475;SDS011;3271;51.910;5.840;2023-07-08T05:40:12;3.22;;;3.03;;
6475;SDS011;3271;51.910;5.840;2023-07-08T05:42:38;5.55;;;3.25;;
6475;SDS011;3271;51.910;5.840;2023-07-08T05:45:04;3.60;;;3.30;;
6475;SDS011;3271;51.910;5.840;2023-07-08T05:47:35;6.32;;;3.58;;
6475;SDS011;3271;51.910;5.840;2023-07-08T05:50:01;3.92;;;3.50;;
6475;SDS011;3271;51.910;5.840;2023-07-08T05:52:27;3.60;;;3.30;;
6475;SDS011;3271;51.910;5.840;2023-07-08T05:54:53;4.40;;;2.97;;
6475;SDS011;3271;51.910;5.840;2023-07-08T05:57:20;3.83;;;3.25;;
6475;SDS011;3271;51.910;5.840;2023-07-08T05:59:46;4.95;;;3.17;;
6475;SDS011;3271;51.910;5.840;2023-07-08T06:02:12;6.65;;;3.67;;
6475;SDS011;3271;51.910;5.840;2023-07-08T06:04:39;3.25;;;2.85;;
6475;SDS011;3271;51.910;5.840;2023-07-08T06:07:05;4.78;;;3.95;;
6475;SDS011;3271;51.910;5.840;2023-07-08T06:09:31;3.50;;;3.20;;
6475;SDS011;3271;51.910;5.840;2023-07-08T06:11:57;4.13;;;3.72;;
6475;SDS011;3271;51.910;5.840;2023-07-08T06:14:23;3.70;;;3.40;;
6475;SDS011;3271;51.910;5.840;2023-07-08T06:16:49;4.35;;;3.60;;
6475;SDS011;3271;51.910;5.840;2023-07-08T06:19:18;4.07;;;3.65;;
6475;SDS011;3271;51.910;5.840;2023-07-08T06:21:44;3.65;;;3.33;;
6475;SDS011;3271;51.910;5.840;2023-07-08T06:24:10;4.40;;;3.65;;
6475;SDS011;3271;51.910;5.840;2023-07-08T06:26:36;4.85;;;3.95;;
6475;SDS011;3271;51.910;5.840;2023-07-08T06:29:02;3.80;;;3.50;;
6475;SDS011;3271;51.910;5.840;2023-07-08T06:31:28;4.68;;;3.65;;
6475;SDS011;3271;51.910;5.840;2023-07-08T06:33:54;3.72;;;3.42;;
6475;SDS011;3271;51.910;5.840;2023-07-08T06:36:20;3.67;;;3.38;;
6475;SDS011;3271;51.910;5.840;2023-07-08T06:38:47;3.83;;;3.40;;
6475;SDS011;3271;51.910;5.840;2023-07-08T06:41:13;4.32;;;3.75;;
6475;SDS011;3271;51.910;5.840;2023-07-08T06:43:39;4.68;;;3.58;;
6475;SDS011;3271;51.910;5.840;2023-07-08T06:46:04;5.05;;;3.78;;
6475;SDS011;3271;51.910;5.840;2023-07-08T06:48:31;4.45;;;3.20;;
6475;SDS011;3271;51.910;5.840;2023-07-08T06:50:59;4.25;;;3.50;;
6475;SDS011;3271;51.910;5.840;2023-07-08T06:53:25;4.28;;;3.88;;
6475;SDS011;3271;51.910;5.840;2023-07-08T06:55:51;4.35;;;3.67;;
6475;SDS011;3271;51.910;5.840;2023-07-08T06:58:17;6.53;;;4.10;;
6475;SDS011;3271;51.910;5.840;2023-07-08T07:00:43;3.60;;;3.20;;
6475;SDS011;3271;51.910;5.840;2023-07-08T07:03:09;5.03;;;4.05;;
6475;SDS011;3271;51.910;5.840;2023-07-08T07:05:35;3.53;;;3.20;;
6475;SDS011;3271;51.910;5.840;2023-07-08T07:08:02;4.35;;;3.58;;
6475;SDS011;3271;51.910;5.840;2023-07-08T07:10:28;6.43;;;3.72;;
6475;SDS011;3271;51.910;5.840;2023-07-08T07:12:54;3.92;;;3.53;;
6475;SDS011;3271;51.910;5.840;2023-07-08T07:15:20;3.95;;;3.55;;
6475;SDS011;3271;51.910;5.840;2023-07-08T07:17:46;4.72;;;3.47;;
6475;SDS011;3271;51.910;5.840;2023-07-08T07:20:12;6.57;;;3.70;;
6475;SDS011;3271;51.910;5.840;2023-07-08T07:22:38;4.13;;;3.72;;
6475;SDS011;3271;51.910;5.840;2023-07-08T07:25:04;5.47;;;4.18;;
6475;SDS011;3271;51.910;5.840;2023-07-08T07:27:30;8.60;;;3.83;;
6475;SDS011;3271;51.910;5.840;2023-07-08T07:29:56;5.88;;;3.67;;
6475;SDS011;3271;51.910;5.840;2023-07-08T07:32:24;3.47;;;3.17;;
6475;SDS011;3271;51.910;5.840;2023-07-08T07:34:51;4.82;;;3.60;;
6475;SDS011;3271;51.910;5.840;2023-07-08T07:37:18;3.90;;;3.58;;
6475;SDS011;3271;51.910;5.840;2023-07-08T07:39:44;3.65;;;3.35;;
6475;SDS011;3271;51.910;5.840;2023-07-08T07:42:10;5.85;;;3.83;;
6475;SDS011;3271;51.910;5.840;2023-07-08T07:44:37;4.70;;;3.30;;
6475;SDS011;3271;51.910;5.840;2023-07-08T07:47:06;3.90;;;3.50;;
6475;SDS011;3271;51.910;5.840;2023-07-08T07:49:32;5.55;;;4.05;;
6475;SDS011;3271;51.910;5.840;2023-07-08T07:51:58;4.93;;;3.55;;
6475;SDS011;3271;51.910;5.840;2023-07-08T07:54:24;6.82;;;3.50;;
6475;SDS011;3271;51.910;5.840;2023-07-08T07:56:50;4.72;;;3.30;;
6475;SDS011;3271;51.910;5.840;2023-07-08T07:59:16;3.70;;;3.40;;
6475;SDS011;3271;51.910;5.840;2023-07-08T08:01:42;4.97;;;3.70;;
6475;SDS011;3271;51.910;5.840;2023-07-08T08:04:09;3.95;;;3.60;;
6475;SDS011;3271;51.910;5.840;2023-07-08T08:06:36;4.25;;;3.67;;
6475;SDS011;3271;51.910;5.840;2023-07-08T08:09:02;3.20;;;2.97;;
6475;SDS011;3271;51.910;5.840;2023-07-08T08:11:28;4.13;;;3.63;;
6475;SDS011;3271;51.910;5.840;2023-07-08T08:13:55;4.18;;;3.70;;
6475;SDS011;3271;51.910;5.840;2023-07-08T08:16:21;4.28;;;3.88;;
6475;SDS011;3271;51.910;5.840;2023-07-08T08:18:47;6.00;;;3.95;;
6475;SDS011;3271;51.910;5.840;2023-07-08T08:21:13;6.90;;;5.30;;
6475;SDS011;3271;51.910;5.840;2023-07-08T08:23:39;4.82;;;3.78;;
6475;SDS011;3271;51.910;5.840;2023-07-08T08:26:05;5.93;;;4.25;;
6475;SDS011;3271;51.910;5.840;2023-07-08T08:28:31;5.20;;;4.30;;
6475;SDS011;3271;51.910;5.840;2023-07-08T08:30:57;5.47;;;4.80;;
6475;SDS011;3271;51.910;5.840;2023-07-08T08:33:23;7.22;;;4.72;;
6475;SDS011;3271;51.910;5.840;2023-07-08T08:35:49;6.00;;;4.07;;
6475;SDS011;3271;51.910;5.840;2023-07-08T08:38:15;6.13;;;4.35;;
6475;SDS011;3271;51.910;5.840;2023-07-08T08:40:42;4.50;;;3.45;;
6475;SDS011;3271;51.910;5.840;2023-07-08T08:43:10;5.68;;;4.72;;
6475;SDS011;3271;51.910;5.840;2023-07-08T08:45:38;5.00;;;3.97;;
6475;SDS011;3271;51.910;5.840;2023-07-08T08:48:06;4.60;;;4.10;;
6475;SDS011;3271;51.910;5.840;2023-07-08T08:53:05;5.07;;;4.05;;
6475;SDS011;3271;51.910;5.840;2023-07-08T08:55:31;7.07;;;4.50;;
6475;SDS011;3271;51.910;5.840;2023-07-08T08:58:05;5.32;;;3.90;;
6475;SDS011;3271;51.910;5.840;2023-07-08T09:00:44;5.40;;;4.20;;
6475;SDS011;3271;51.910;5.840;2023-07-08T09:03:12;4.88;;;4.00;;
6475;SDS011;3271;51.910;5.840;2023-07-08T09:05:41;5.28;;;4.13;;
6475;SDS011;3271;51.910;5.840;2023-07-08T09:08:18;4.78;;;3.95;;
6475;SDS011;3271;51.910;5.840;2023-07-08T09:10:53;5.10;;;4.53;;
6475;SDS011;3271;51.910;5.840;2023-07-08T09:13:24;4.80;;;4.10;;
6475;SDS011;3271;51.910;5.840;2023-07-08T09:16:02;5.93;;;4.35;;
6475;SDS011;3271;51.910;5.840;2023-07-08T09:18:32;4.78;;;4.07;;
6475;SDS011;3271;51.910;5.840;2023-07-08T09:20:58;6.68;;;4.40;;
6475;SDS011;3271;51.910;5.840;2023-07-08T09:23:29;5.88;;;4.55;;
6475;SDS011;3271;51.910;5.840;2023-07-08T09:25:59;5.68;;;3.88;;
6475;SDS011;3271;51.910;5.840;2023-07-08T09:28:41;6.55;;;4.45;;
6475;SDS011;3271;51.910;5.840;2023-07-08T09:31:08;5.57;;;4.82;;
6475;SDS011;3271;51.910;5.840;2023-07-08T09:33:39;6.30;;;3.95;;
6475;SDS011;3271;51.910;5.840;2023-07-08T09:36:15;6.22;;;4.53;;
6475;SDS011;3271;51.910;5.840;2023-07-08T09:38:42;5.32;;;4.43;;
6475;SDS011;3271;51.910;5.840;2023-07-08T09:41:07;5.72;;;3.78;;
6475;SDS011;3271;51.910;5.840;2023-07-08T09:43:34;5.55;;;4.05;;
6475;SDS011;3271;51.910;5.840;2023-07-08T09:46:02;4.70;;;4.20;;
6475;SDS011;3271;51.910;5.840;2023-07-08T09:48:29;4.97;;;4.10;;
6475;SDS011;3271;51.910;5.840;2023-07-08T09:50:57;5.40;;;4.80;;
6475;SDS011;3271;51.910;5.840;2023-07-08T09:53:23;7.20;;;4.57;;
6475;SDS011;3271;51.910;5.840;2023-07-08T09:55:51;5.25;;;4.18;;
6475;SDS011;3271;51.910;5.840;2023-07-08T09:58:19;7.40;;;4.05;;
6475;SDS011;3271;51.910;5.840;2023-07-08T10:00:50;5.05;;;4.30;;
6475;SDS011;3271;51.910;5.840;2023-07-08T10:03:19;6.72;;;5.30;;
6475;SDS011;3271;51.910;5.840;2023-07-08T10:05:46;5.20;;;4.53;;
6475;SDS011;3271;51.910;5.840;2023-07-08T10:08:15;7.32;;;5.13;;
6475;SDS011;3271;51.910;5.840;2023-07-08T10:10:41;6.78;;;4.72;;
6475;SDS011;3271;51.910;5.840;2023-07-08T10:13:20;5.40;;;4.90;;
6475;SDS011;3271;51.910;5.840;2023-07-08T10:15:52;6.63;;;4.63;;
6475;SDS011;3271;51.910;5.840;2023-07-08T10:18:23;4.78;;;4.38;;
6475;SDS011;3271;51.910;5.840;2023-07-08T10:26:05;5.47;;;4.95;;
6475;SDS011;3271;51.910;5.840;2023-07-08T10:28:47;5.13;;;4.63;;
6475;SDS011;3271;51.910;5.840;2023-07-08T10:33:45;5.97;;;4.38;;
6475;SDS011;3271;51.910;5.840;2023-07-08T10:44:44;6.93;;;4.82;;
6475;SDS011;3271;51.910;5.840;2023-07-08T10:52:25;5.18;;;4.15;;
6475;SDS011;3271;51.910;5.840;2023-07-08T11:00:16;7.20;;;4.78;;
6475;SDS011;3271;51.910;5.840;2023-07-08T11:02:58;4.40;;;3.75;;
6475;SDS011;3271;51.910;5.840;2023-07-08T11:05:41;6.88;;;4.20;;
6475;SDS011;3271;51.910;5.840;2023-07-08T11:08:16;8.00;;;5.40;;
6475;SDS011;3271;51.910;5.840;2023-07-08T11:10:46;6.38;;;4.93;;
6475;SDS011;3271;51.910;5.840;2023-07-08T11:13:17;8.77;;;4.53;;
6475;SDS011;3271;51.910;5.840;2023-07-08T11:20:47;4.90;;;4.35;;
6475;SDS011;3271;51.910;5.840;2023-07-08T11:23:25;8.05;;;5.50;;
6475;SDS011;3271;51.910;5.840;2023-07-08T11:25:54;6.28;;;5.40;;
6475;SDS011;3271;51.910;5.840;2023-07-08T11:28:21;8.02;;;4.90;;
6475;SDS011;3271;51.910;5.840;2023-07-08T11:30:48;8.48;;;5.05;;
6475;SDS011;3271;51.910;5.840;2023-07-08T11:33:15;6.47;;;5.35;;
6475;SDS011;3271;51.910;5.840;2023-07-08T11:35:44;8.85;;;5.85;;
6475;SDS011;3271;51.910;5.840;2023-07-08T11:38:12;9.98;;;6.05;;
6475;SDS011;3271;51.910;5.840;2023-07-08T11:41:00;6.13;;;5.53;;
6475;SDS011;3271;51.910;5.840;2023-07-08T11:43:40;6.68;;;5.32;;
6475;SDS011;3271;51.910;5.840;2023-07-08T11:46:11;8.83;;;5.30;;
6475;SDS011;3271;51.910;5.840;2023-07-08T11:48:39;6.65;;;4.82;;
6475;SDS011;3271;51.910;5.840;2023-07-08T11:51:07;5.75;;;4.75;;
6475;SDS011;3271;51.910;5.840;2023-07-08T11:53:35;8.18;;;5.82;;
6475;SDS011;3271;51.910;5.840;2023-07-08T11:56:23;5.03;;;4.53;;
6475;SDS011;3271;51.910;5.840;2023-07-08T12:03:47;7.32;;;5.20;;
6475;SDS011;3271;51.910;5.840;2023-07-08T12:08:56;7.80;;;4.63;;
6475;SDS011;3271;51.910;5.840;2023-07-08T12:11:32;10.00;;;6.03;;
6475;SDS011;3271;51.910;5.840;2023-07-08T12:13:58;8.63;;;6.10;;
6475;SDS011;3271;51.910;5.840;2023-07-08T12:16:25;6.93;;;5.03;;
6475;SDS011;3271;51.910;5.840;2023-07-08T12:18:51;7.95;;;5.13;;
6475;SDS011;3271;51.910;5.840;2023-07-08T12:21:18;8.43;;;4.72;;
6475;SDS011;3271;51.910;5.840;2023-07-08T12:23:45;5.65;;;5.07;;
6475;SDS011;3271;51.910;5.840;2023-07-08T12:26:12;6.35;;;4.70;;
6475;SDS011;3271;51.910;5.840;2023-07-08T12:28:38;6.70;;;4.70;;
6475;SDS011;3271;51.910;5.840;2023-07-08T12:31:09;6.63;;;5.22;;
6475;SDS011;3271;51.910;5.840;2023-07-08T12:33:39;6.68;;;4.93;;
6475;SDS011;3271;51.910;5.840;2023-07-08T12:36:05;8.15;;;5.38;;
6475;SDS011;3271;51.910;5.840;2023-07-08T12:38:32;5.45;;;4.57;;
6475;SDS011;3271;51.910;5.840;2023-07-08T12:41:00;4.93;;;4.45;;
6475;SDS011;3271;51.910;5.840;2023-07-08T12:43:26;7.05;;;4.97;;
6475;SDS011;3271;51.910;5.840;2023-07-08T12:45:52;6.07;;;5.13;;
6475;SDS011;3271;51.910;5.840;2023-07-08T12:48:18;6.25;;;4.65;;
6475;SDS011;3271;51.910;5.840;2023-07-08T12:50:44;8.35;;;5.10;;
6475;SDS011;3271;51.910;5.840;2023-07-08T12:53:11;6.55;;;5.22;;
6475;SDS011;3271;51.910;5.840;2023-07-08T12:55:41;6.60;;;4.68;;
6475;SDS011;3271;51.910;5.840;2023-07-08T12:58:09;7.00;;;5.22;;
6475;SDS011;3271;51.910;5.840;2023-07-08T13:00:38;7.97;;;5.32;;
6475;SDS011;3271;51.910;5.840;2023-07-08T13:03:12;6.72;;;5.60;;
6475;SDS011;3271;51.910;5.840;2023-07-08T13:05:39;8.88;;;5.10;;
6475;SDS011;3271;51.910;5.840;2023-07-08T13:08:06;9.75;;;5.30;;
6475;SDS011;3271;51.910;5.840;2023-07-08T13:10:33;6.90;;;5.20;;
6475;SDS011;3271;51.910;5.840;2023-07-08T13:13:02;7.82;;;5.28;;
6475;SDS011;3271;51.910;5.840;2023-07-08T13:15:30;6.30;;;5.32;;
6475;SDS011;3271;51.910;5.840;2023-07-08T13:17:58;7.07;;;5.43;;
6475;SDS011;3271;51.910;5.840;2023-07-08T13:20:24;6.70;;;5.18;;
6475;SDS011;3271;51.910;5.840;2023-07-08T13:22:59;7.55;;;5.43;;
6475;SDS011;3271;51.910;5.840;2023-07-08T13:25:27;8.10;;;5.57;;
6475;SDS011;3271;51.910;5.840;2023-07-08T13:27:58;7.95;;;5.20;;
6475;SDS011;3271;51.910;5.840;2023-07-08T13:30:25;8.68;;;6.43;;
6475;SDS011;3271;51.910;5.840;2023-07-08T13:32:55;7.78;;;5.55;;
6475;SDS011;3271;51.910;5.840;2023-07-08T13:35:25;8.10;;;4.95;;
6475;SDS011;3271;51.910;5.840;2023-07-08T13:37:52;7.25;;;5.18;;
6475;SDS011;3271;51.910;5.840;2023-07-08T13:40:18;6.32;;;5.38;;
6475;SDS011;3271;51.910;5.840;2023-07-08T13:42:48;8.60;;;5.53;;
6475;SDS011;3271;51.910;5.840;2023-07-08T13:45:15;10.48;;;6.22;;
6475;SDS011;3271;51.910;5.840;2023-07-08T13:47:43;8.10;;;6.30;;
6475;SDS011;3271;51.910;5.840;2023-07-08T13:50:16;7.38;;;5.68;;
6475;SDS011;3271;51.910;5.840;2023-07-08T13:52:44;8.30;;;5.78;;
6475;SDS011;3271;51.910;5.840;2023-07-08T13:55:15;8.23;;;6.05;;
6475;SDS011;3271;51.910;5.840;2023-07-08T13:57:41;8.07;;;5.43;;
6475;SDS011;3271;51.910;5.840;2023-07-08T14:00:07;10.85;;;5.57;;
6475;SDS011;3271;51.910;5.840;2023-07-08T14:02:34;8.02;;;5.75;;
6475;SDS011;3271;51.910;5.840;2023-07-08T14:05:00;8.20;;;6.15;;
6475;SDS011;3271;51.910;5.840;2023-07-08T14:07:29;6.57;;;4.90;;
6475;SDS011;3271;51.910;5.840;2023-07-08T14:09:56;6.85;;;4.93;;
6475;SDS011;3271;51.910;5.840;2023-07-08T14:12:22;6.32;;;4.90;;
6475;SDS011;3271;51.910;5.840;2023-07-08T14:14:48;7.05;;;5.30;;
6475;SDS011;3271;51.910;5.840;2023-07-08T14:17:16;9.20;;;5.10;;
6475;SDS011;3271;51.910;5.840;2023-07-08T14:19:44;5.78;;;5.22;;
6475;SDS011;3271;51.910;5.840;2023-07-08T14:24:39;5.47;;;4.82;;
6475;SDS011;3271;51.910;5.840;2023-07-08T14:27:07;7.10;;;4.90;;
6475;SDS011;3271;51.910;5.840;2023-07-08T14:29:37;7.40;;;5.03;;
6475;SDS011;3271;51.910;5.840;2023-07-08T14:32:03;7.78;;;5.15;;
6475;SDS011;3271;51.910;5.840;2023-07-08T14:34:29;6.80;;;5.15;;
6475;SDS011;3271;51.910;5.840;2023-07-08T14:36:55;7.05;;;4.90;;
6475;SDS011;3271;51.910;5.840;2023-07-08T14:39:20;6.22;;;4.70;;
6475;SDS011;3271;51.910;5.840;2023-07-08T14:41:47;8.30;;;4.80;;
6475;SDS011;3271;51.910;5.840;2023-07-08T14:44:22;9.40;;;5.10;;
6475;SDS011;3271;51.910;5.840;2023-07-08T14:46:49;7.95;;;5.10;;
6475;SDS011;3271;51.910;5.840;2023-07-08T14:49:16;6.90;;;4.75;;
6475;SDS011;3271;51.910;5.840;2023-07-08T14:51:42;5.40;;;4.53;;
6475;SDS011;3271;51.910;5.840;2023-07-08T14:54:08;10.93;;;5.45;;
6475;SDS011;3271;51.910;5.840;2023-07-08T14:56:34;5.88;;;5.22;;
6475;SDS011;3271;51.910;5.840;2023-07-08T14:59:00;5.90;;;5.10;;
6475;SDS011;3271;51.910;5.840;2023-07-08T15:01:26;8.00;;;5.63;;
6475;SDS011;3271;51.910;5.840;2023-07-08T15:03:55;6.63;;;5.18;;
6475;SDS011;3271;51.910;5.840;2023-07-08T15:06:21;7.45;;;5.30;;
6475;SDS011;3271;51.910;5.840;2023-07-08T15:08:47;5.57;;;4.97;;
6475;SDS011;3271;51.910;5.840;2023-07-08T15:11:13;6.22;;;5.03;;
6475;SDS011;3271;51.910;5.840;2023-07-08T15:13:39;6.68;;;5.07;;
6475;SDS011;3271;51.910;5.840;2023-07-08T15:16:10;7.45;;;5.10;;
6475;SDS011;3271;51.910;5.840;2023-07-08T15:18:36;7.03;;;4.97;;
6475;SDS011;3271;51.910;5.840;2023-07-08T15:21:02;7.57;;;4.68;;
6475;SDS011;3271;51.910;5.840;2023-07-08T15:23:28;5.68;;;4.60;;
6475;SDS011;3271;51.910;5.840;2023-07-08T15:25:54;7.82;;;4.68;;
6475;SDS011;3271;51.910;5.840;2023-07-08T15:28:25;7.57;;;4.88;;
6475;SDS011;3271;51.910;5.840;2023-07-08T15:30:58;7.30;;;4.95;;
6475;SDS011;3271;51.910;5.840;2023-07-08T15:33:25;5.85;;;4.25;;
6475;SDS011;3271;51.910;5.840;2023-07-08T15:35:51;9.50;;;5.50;;
6475;SDS011;3271;51.910;5.840;2023-07-08T15:38:18;6.03;;;4.70;;
6475;SDS011;3271;51.910;5.840;2023-07-08T15:40:44;6.90;;;4.43;;
6475;SDS011;3271;51.910;5.840;2023-07-08T15:43:12;5.75;;;4.53;;
6475;SDS011;3271;51.910;5.840;2023-07-08T15:45:38;5.47;;;4.38;;
6475;SDS011;3271;51.910;5.840;2023-07-08T15:48:07;5.32;;;4.50;;
6475;SDS011;3271;51.910;5.840;2023-07-08T15:50:34;6.75;;;4.13;;
6475;SDS011;3271;51.910;5.840;2023-07-08T15:53:00;6.95;;;4.93;;
6475;SDS011;3271;51.910;5.840;2023-07-08T15:55:27;6.47;;;5.03;;
6475;SDS011;3271;51.910;5.840;2023-07-08T15:57:55;6.28;;;4.43;;
6475;SDS011;3271;51.910;5.840;2023-07-08T16:00:27;5.53;;;4.60;;
6475;SDS011;3271;51.910;5.840;2023-07-08T16:02:57;7.25;;;5.13;;
6475;SDS011;3271;51.910;5.840;2023-07-08T16:05:24;5.90;;;4.72;;